Time;durP1;ratioP1;P1;durP2;ratioP2;P2;SDS_P1;SDS_P2;PMS_P1;PMS_P2;Temp;Humidity;BMP_temperature;BMP_pressure;BME280_temperature;BME280_humidity;BME280_pressure;Samples;Min_cycle;Max_cycle;Signal;HPM_P1;HPM_P2
2023/06/02 00:01:09;;;;;;;0.20;0.20;;;10.80;99.90;;;;;;4839985;29;20110;-78
2023/06/02 00:03:37;;;;;;;0.20;0.20;;;10.80;99.90;;;;;;4838845;29;20078;-78
2023/06/02 00:06:05;;;;;;;0.20;0.20;;;10.70;99.90;;;;;;4825041;29;20095;-77
2023/06/02 00:08:32;;;;;;;0.20;0.20;;;10.70;99.90;;;;;;4823240;29;20443;-78
2023/06/02 00:10:59;;;;;;;0.20;0.20;;;10.70;99.90;;;;;;4821656;29;20141;-78
2023/06/02 00:13:25;;;;;;;0.10;0.10;;;10.70;99.90;;;;;;4837726;29;20042;-77
2023/06/02 00:15:51;;;;;;;0.20;0.20;;;10.70;99.90;;;;;;4835036;29;20129;-78
2023/06/02 00:18:16;;;;;;;0.20;0.20;;;10.80;99.90;;;;;;4835018;29;20178;-78
2023/06/02 00:20:44;;;;;;;0.20;0.20;;;10.70;99.90;;;;;;4823487;29;20065;-77
2023/06/02 00:23:09;;;;;;;0.20;0.20;;;10.70;99.90;;;;;;4822424;29;20058;-78
2023/06/02 00:25:45;;;;;;;0.10;0.10;;;10.70;99.90;;;;;;4825074;29;20058;-78
2023/06/02 00:28:11;;;;;;;0.20;0.20;;;10.80;99.90;;;;;;4820640;29;20046;-77
2023/06/02 00:30:37;;;;;;;0.13;0.13;;;10.80;99.90;;;;;;4827021;29;20150;-77
2023/06/02 00:33:03;;;;;;;0.10;0.10;;;10.70;99.90;;;;;;4836063;29;20056;-77
2023/06/02 00:35:29;;;;;;;0.20;0.20;;;10.80;99.90;;;;;;4850264;29;20235;-77
2023/06/02 00:37:55;;;;;;;0.17;0.17;;;10.70;99.90;;;;;;4822448;29;20554;-78
2023/06/02 00:40:22;;;;;;;0.20;0.20;;;10.80;99.90;;;;;;4838075;29;20056;-78
2023/06/02 00:42:48;;;;;;;0.20;0.20;;;10.70;99.90;;;;;;4822168;29;20050;-77
2023/06/02 00:45:13;;;;;;;0.20;0.20;;;10.70;99.90;;;;;;4834935;29;20117;-78
2023/06/02 00:47:39;;;;;;;0.20;0.20;;;10.90;99.90;;;;;;4849052;29;20050;-77
2023/06/02 00:50:05;;;;;;;0.20;0.20;;;10.70;99.90;;;;;;4819861;29;20064;-77
2023/06/02 00:52:33;;;;;;;0.20;0.20;;;10.70;99.90;;;;;;4835726;29;20050;-77
2023/06/02 00:55:01;;;;;;;0.20;0.20;;;10.70;99.90;;;;;;4831800;29;20061;-77
2023/06/02 00:57:28;;;;;;;0.10;0.10;;;10.70;99.90;;;;;;4843498;29;20038;-77
2023/06/02 00:59:58;;;;;;;0.20;0.20;;;10.80;99.90;;;;;;4840056;29;20109;-77
2023/06/02 01:02:24;;;;;;;0.10;0.10;;;10.70;99.90;;;;;;4838979;29;20077;-77
2023/06/02 01:04:52;;;;;;;0.13;0.13;;;10.70;99.90;;;;;;4827885;29;21445;-77
2023/06/02 01:07:25;;;;;;;0.10;0.10;;;10.70;99.90;;;;;;4824092;29;20519;-77
2023/06/02 01:09:56;;;;;;;0.20;0.20;;;10.70;99.90;;;;;;4822177;29;20058;-77
2023/06/02 01:12:23;;;;;;;0.20;0.20;;;10.60;99.90;;;;;;4834300;29;20073;-78
2023/06/02 01:14:48;;;;;;;0.20;0.20;;;10.70;99.90;;;;;;4822546;29;20049;-77
2023/06/02 01:17:15;;;;;;;0.20;0.20;;;10.70;99.90;;;;;;4835541;29;20042;-77
2023/06/02 01:19:43;;;;;;;0.20;0.20;;;10.60;99.90;;;;;;4821955;29;20085;-77
2023/06/02 01:22:10;;;;;;;0.10;0.10;;;10.60;99.90;;;;;;4839023;29;20393;-77
2023/06/02 01:24:38;;;;;;;0.10;0.10;;;10.60;99.90;;;;;;4822136;29;20058;-77
2023/06/02 01:27:13;;;;;;;0.20;0.20;;;10.60;99.90;;;;;;4825078;29;20046;-77
2023/06/02 01:29:39;;;;;;;0.13;0.13;;;10.60;99.90;;;;;;4844148;29;20042;-77
2023/06/02 01:32:34;;;;;;;0.13;0.13;;;10.60;99.90;;;;;;4821632;29;20078;-77
2023/06/02 01:35:05;;;;;;;0.10;0.10;;;10.60;99.90;;;;;;4815246;29;20140;-77
2023/06/02 01:37:32;;;;;;;0.20;0.20;;;10.60;99.90;;;;;;4824901;29;20054;-77
2023/06/02 01:40:01;;;;;;;0.10;0.10;;;10.60;99.90;;;;;;4816977;29;20073;-77
2023/06/02 01:42:28;;;;;;;0.10;0.10;;;10.60;99.90;;;;;;4836388;29;20042;-77
2023/06/02 01:44:55;;;;;;;0.10;0.10;;;10.60;99.90;;;;;;4819066;29;20089;-77
2023/06/02 01:47:21;;;;;;;0.10;0.10;;;10.60;99.90;;;;;;4823543;29;20495;-77
2023/06/02 01:49:47;;;;;;;0.20;0.20;;;10.60;99.90;;;;;;4827178;29;20125;-77
2023/06/02 01:52:12;;;;;;;0.10;0.10;;;10.50;99.90;;;;;;4826628;29;20103;-77
2023/06/02 01:54:38;;;;;;;0.20;0.20;;;10.60;99.90;;;;;;4823909;29;20053;-77
2023/06/02 01:57:04;;;;;;;0.15;0.15;;;10.60;99.90;;;;;;4821481;29;20140;-77
2023/06/02 01:59:29;;;;;;;0.20;0.20;;;10.60;99.90;;;;;;4823629;29;20053;-77
2023/06/02 02:01:55;;;;;;;0.10;0.10;;;10.60;99.90;;;;;;4818996;29;20113;-77
2023/06/02 02:04:22;;;;;;;0.10;0.10;;;10.60;99.90;;;;;;4820731;29;20049;-77
2023/06/02 02:06:52;;;;;;;0.20;0.20;;;10.60;99.90;;;;;;4821587;29;20054;-78
2023/06/02 02:09:18;;;;;;;0.20;0.20;;;10.60;99.90;;;;;;4825088;29;20080;-77
2023/06/02 02:11:43;;;;;;;0.10;0.10;;;10.60;99.90;;;;;;4821963;29;20034;-77
2023/06/02 02:14:12;;;;;;;0.20;0.20;;;10.60;99.90;;;;;;4837989;29;20046;-77
2023/06/02 02:16:38;;;;;;;0.20;0.20;;;10.60;99.90;;;;;;4822592;29;20054;-76
2023/06/02 02:19:04;;;;;;;0.10;0.10;;;10.60;99.90;;;;;;4814161;29;20069;-78
2023/06/02 02:21:30;;;;;;;0.20;0.20;;;10.70;99.90;;;;;;4847834;29;21673;-77
2023/06/02 02:23:55;;;;;;;0.20;0.20;;;10.70;99.90;;;;;;4821827;29;20062;-77
2023/06/02 02:26:21;;;;;;;0.20;0.20;;;10.60;99.90;;;;;;4821928;29;20042;-77
2023/06/02 02:28:47;;;;;;;0.20;0.20;;;10.60;99.90;;;;;;4821129;29;20106;-77
2023/06/02 02:31:13;;;;;;;0.15;0.15;;;10.60;99.90;;;;;;4849771;29;20436;-77
2023/06/02 02:33:39;;;;;;;0.10;0.10;;;10.60;99.90;;;;;;4837220;29;20513;-77
2023/06/02 02:36:05;;;;;;;0.10;0.10;;;10.70;99.90;;;;;;4837939;29;20054;-77
2023/06/02 02:38:31;;;;;;;0.20;0.20;;;10.60;99.90;;;;;;4820315;29;20154;-78
2023/06/02 02:40:57;;;;;;;0.17;0.17;;;10.60;99.90;;;;;;4823896;29;20096;-76
2023/06/02 02:43:22;;;;;;;0.20;0.20;;;10.70;99.90;;;;;;4835252;29;20137;-77
2023/06/02 02:45:48;;;;;;;0.20;0.20;;;10.60;99.90;;;;;;4838050;29;20057;-77
2023/06/02 02:48:14;;;;;;;0.20;0.20;;;10.60;99.90;;;;;;4822369;29;20057;-77
2023/06/02 02:50:39;;;;;;;0.17;0.17;;;10.70;99.90;;;;;;4852198;29;20050;-77
2023/06/02 02:53:05;;;;;;;0.20;0.20;;;10.70;99.90;;;;;;4822496;29;20115;-77
2023/06/02 02:55:32;;;;;;;0.20;0.20;;;10.70;99.90;;;;;;4836945;29;20124;-77
2023/06/02 02:58:00;;;;;;;0.20;0.20;;;10.70;99.90;;;;;;4837538;29;20048;-78
2023/06/02 03:00:25;;;;;;;0.20;0.20;;;10.70;99.90;;;;;;4841086;29;20045;-77
2023/06/02 03:02:51;;;;;;;0.20;0.20;;;10.60;99.90;;;;;;4839523;29;20086;-78
2023/06/02 03:05:17;;;;;;;0.10;0.10;;;10.70;99.90;;;;;;4822435;29;20165;-78
2023/06/02 03:07:44;;;;;;;0.20;0.20;;;10.70;99.90;;;;;;4825659;29;20194;-77
2023/06/02 03:10:10;;;;;;;0.20;0.20;;;10.70;99.90;;;;;;4824703;29;20053;-77
2023/06/02 03:12:36;;;;;;;0.10;0.10;;;10.70;99.90;;;;;;4838149;29;20053;-78
2023/06/02 03:15:02;;;;;;;0.20;0.20;;;10.70;99.90;;;;;;4821508;29;20050;-77
2023/06/02 03:17:28;;;;;;;0.20;0.20;;;10.80;99.90;;;;;;4836247;29;20042;-78
2023/06/02 03:19:55;;;;;;;0.10;0.10;;;10.80;99.90;;;;;;4830805;29;20051;-77
2023/06/02 03:22:21;;;;;;;0.10;0.10;;;10.70;99.90;;;;;;4803235;29;20046;-78
2023/06/02 03:24:48;;;;;;;0.20;0.20;;;10.80;99.90;;;;;;4819442;29;20145;-78
2023/06/02 03:27:15;;;;;;;0.10;0.10;;;10.80;99.90;;;;;;4824875;29;20054;-77
2023/06/02 03:29:42;;;;;;;0.15;0.15;;;10.80;99.90;;;;;;4825076;29;20081;-78
2023/06/02 03:32:11;;;;;;;0.20;0.20;;;10.80;99.90;;;;;;4843796;29;20046;-77
2023/06/02 03:34:39;;;;;;;0.20;0.20;;;10.80;99.90;;;;;;4820652;29;20102;-78
2023/06/02 03:37:06;;;;;;;0.20;0.20;;;10.80;99.90;;;;;;4821892;29;20061;-78
2023/06/02 03:39:31;;;;;;;0.10;0.10;;;10.90;99.90;;;;;;4841549;29;20050;-78
2023/06/02 03:41:57;;;;;;;0.20;0.20;;;10.90;99.90;;;;;;4825203;29;20415;-77
2023/06/02 03:44:23;;;;;;;0.13;0.13;;;10.90;99.90;;;;;;4824728;29;20535;-77
2023/06/02 03:46:49;;;;;;;0.10;0.10;;;10.90;99.90;;;;;;4841702;29;20053;-78
2023/06/02 03:49:14;;;;;;;0.10;0.10;;;10.90;99.90;;;;;;4823821;29;20503;-77
2023/06/02 03:51:43;;;;;;;0.10;0.10;;;10.90;99.90;;;;;;4835865;29;20042;-78
2023/06/02 03:54:09;;;;;;;0.20;0.20;;;10.90;99.90;;;;;;4837174;29;20081;-77
2023/06/02 03:56:34;;;;;;;0.20;0.20;;;11.00;99.90;;;;;;4824709;29;20177;-77
2023/06/02 03:59:00;;;;;;;0.10;0.10;;;10.90;99.90;;;;;;4840583;29;20811;-78
2023/06/02 04:01:26;;;;;;;0.10;0.10;;;11.00;99.90;;;;;;4828004;29;20050;-77
2023/06/02 04:03:52;;;;;;;0.10;0.10;;;10.90;99.90;;;;;;4825146;29;20431;-78
2023/06/02 04:06:17;;;;;;;0.17;0.17;;;11.00;99.90;;;;;;4840448;29;20049;-76
2023/06/02 04:08:43;;;;;;;0.10;0.10;;;11.00;99.90;;;;;;4844656;29;20046;-77
2023/06/02 04:11:09;;;;;;;0.17;0.17;;;11.00;99.90;;;;;;4837937;29;20065;-79
2023/06/02 04:13:35;;;;;;;0.20;0.20;;;11.00;99.90;;;;;;4835650;29;20046;-77
2023/06/02 04:16:01;;;;;;;0.20;0.20;;;11.00;99.90;;;;;;4838123;29;20430;-77
2023/06/02 04:18:28;;;;;;;0.10;0.10;;;11.10;99.90;;;;;;4829139;29;20054;-77
2023/06/02 04:20:53;;;;;;;0.10;0.10;;;11.10;99.90;;;;;;4819913;29;20057;-77
2023/06/02 04:23:19;;;;;;;0.20;0.20;;;11.10;99.90;;;;;;4837779;29;20272;-77
2023/06/02 04:25:45;;;;;;;0.20;0.20;;;11.10;99.90;;;;;;4825965;29;20469;-78
2023/06/02 04:28:11;;;;;;;0.20;0.20;;;11.10;99.90;;;;;;4840887;29;20061;-77
2023/06/02 04:30:38;;;;;;;0.10;0.10;;;11.20;99.90;;;;;;4849369;29;20053;-78
2023/06/02 04:33:05;;;;;;;0.10;0.10;;;11.20;99.90;;;;;;4842258;29;20045;-77
2023/06/02 04:35:30;;;;;;;0.20;0.20;;;11.20;99.90;;;;;;4824647;29;20569;-77
2023/06/02 04:37:56;;;;;;;0.17;0.17;;;11.20;99.90;;;;;;4839167;29;20117;-77
2023/06/02 04:40:22;;;;;;;0.10;0.10;;;11.20;99.90;;;;;;4841389;29;20130;-76
2023/06/02 04:42:48;;;;;;;0.20;0.20;;;11.30;99.90;;;;;;4839047;29;20392;-77
2023/06/02 04:45:16;;;;;;;0.10;0.10;;;11.30;99.90;;;;;;4823418;29;20190;-77
2023/06/02 04:47:42;;;;;;;0.20;0.20;;;11.30;99.90;;;;;;4822821;29;20083;-77
2023/06/02 04:50:09;;;;;;;0.10;0.10;;;11.30;99.90;;;;;;4833417;29;20053;-77
2023/06/02 04:52:39;;;;;;;0.10;0.10;;;11.40;99.90;;;;;;4828647;29;20042;-78
2023/06/02 04:55:08;;;;;;;0.10;0.10;;;11.40;99.90;;;;;;4839202;29;20042;-78
2023/06/02 04:57:34;;;;;;;0.17;0.17;;;11.40;99.90;;;;;;4839590;29;20498;-77
2023/06/02 05:00:03;;;;;;;0.20;0.20;;;11.40;99.90;;;;;;4840558;29;20055;-78
2023/06/02 05:02:29;;;;;;;0.10;0.10;;;11.40;99.90;;;;;;4839805;29;20129;-77
2023/06/02 05:04:55;;;;;;;0.10;0.10;;;11.50;99.90;;;;;;4842395;29;20122;-77
2023/06/02 05:07:20;;;;;;;0.10;0.10;;;11.50;99.90;;;;;;4813365;29;20479;-77
2023/06/02 05:09:46;;;;;;;0.20;0.20;;;11.50;99.90;;;;;;4823125;29;20065;-77
2023/06/02 05:12:12;;;;;;;0.10;0.10;;;11.50;99.90;;;;;;4836502;29;20554;-77
2023/06/02 05:14:38;;;;;;;0.20;0.20;;;11.60;99.90;;;;;;4838468;29;20041;-77
2023/06/02 05:17:04;;;;;;;0.10;0.10;;;11.60;99.90;;;;;;4821156;29;20058;-77
2023/06/02 05:19:30;;;;;;;0.20;0.20;;;11.70;99.90;;;;;;4822363;29;20061;-77
2023/06/02 05:21:55;;;;;;;0.20;0.20;;;11.70;99.90;;;;;;4816210;29;20050;-77
2023/06/02 05:24:21;;;;;;;0.20;0.20;;;11.70;99.90;;;;;;4831944;29;20149;-77
2023/06/02 05:26:47;;;;;;;0.20;0.20;;;11.80;99.90;;;;;;4839610;29;20213;-77
2023/06/02 05:29:12;;;;;;;0.10;0.10;;;11.80;99.90;;;;;;4838184;29;20380;-77
2023/06/02 05:31:38;;;;;;;0.20;0.20;;;11.80;99.90;;;;;;4846393;29;20052;-77
2023/06/02 05:34:04;;;;;;;0.20;0.20;;;11.90;99.90;;;;;;4822265;29;20103;-76
2023/06/02 05:36:30;;;;;;;0.10;0.10;;;11.90;99.90;;;;;;4816070;29;20065;-77
2023/06/02 05:38:55;;;;;;;0.10;0.10;;;11.90;99.90;;;;;;4837319;29;20128;-77
2023/06/02 05:41:21;;;;;;;0.20;0.20;;;12.00;99.90;;;;;;4827866;29;20057;-78
2023/06/02 05:43:47;;;;;;;0.10;0.10;;;12.00;99.90;;;;;;4829551;29;20787;-77
2023/06/02 05:46:13;;;;;;;0.20;0.20;;;12.10;99.90;;;;;;4817997;29;20042;-76
2023/06/02 05:48:38;;;;;;;0.15;0.15;;;12.10;99.90;;;;;;4834908;29;20042;-79
2023/06/02 05:51:04;;;;;;;0.20;0.20;;;12.20;99.90;;;;;;4822524;29;20077;-78
2023/06/02 05:53:30;;;;;;;0.10;0.10;;;12.20;99.90;;;;;;4836575;29;20045;-78
2023/06/02 05:55:55;;;;;;;0.10;0.10;;;12.20;99.90;;;;;;4823989;29;20049;-77
2023/06/02 05:58:21;;;;;;;0.20;0.20;;;12.30;99.90;;;;;;4829137;29;20156;-77
2023/06/02 06:00:47;;;;;;;0.10;0.10;;;12.30;99.90;;;;;;4829401;29;20054;-78
2023/06/02 06:03:14;;;;;;;0.10;0.10;;;12.40;99.90;;;;;;4837126;29;20186;-78
2023/06/02 06:05:40;;;;;;;0.20;0.20;;;12.50;99.90;;;;;;4841265;29;20113;-77
2023/06/02 06:08:05;;;;;;;0.20;0.20;;;12.50;99.90;;;;;;4822427;29;20058;-76
2023/06/02 06:10:31;;;;;;;0.20;0.20;;;12.50;99.90;;;;;;4839730;29;20124;-76
2023/06/02 06:12:56;;;;;;;0.10;0.10;;;12.60;99.90;;;;;;4842350;29;20682;-76
2023/06/02 06:15:22;;;;;;;0.10;0.10;;;12.60;99.90;;;;;;4837804;29;20076;-76
2023/06/02 06:17:49;;;;;;;0.10;0.10;;;12.70;99.90;;;;;;4824853;29;20364;-77
2023/06/02 06:20:15;;;;;;;0.10;0.10;;;12.70;99.90;;;;;;4837619;29;20057;-76
2023/06/02 06:22:42;;;;;;;0.10;0.10;;;12.70;99.90;;;;;;4837142;29;20132;-77
2023/06/02 06:25:09;;;;;;;0.10;0.10;;;12.80;99.90;;;;;;4838319;29;20177;-78
2023/06/02 06:27:34;;;;;;;0.10;0.10;;;12.90;99.90;;;;;;4840233;29;20042;-77
2023/06/02 06:30:00;;;;;;;0.20;0.20;;;12.90;99.90;;;;;;4836622;29;20615;-78
2023/06/02 06:32:25;;;;;;;0.13;0.13;;;13.00;99.90;;;;;;4818691;29;20046;-77
2023/06/02 06:34:51;;;;;;;0.10;0.10;;;13.30;99.90;;;;;;4837026;29;20053;-79
2023/06/02 06:37:17;;;;;;;0.20;0.20;;;13.00;99.90;;;;;;4835560;29;20050;-78
2023/06/02 06:39:42;;;;;;;0.10;0.10;;;13.20;99.90;;;;;;4837513;29;20050;-79
2023/06/02 06:42:08;;;;;;;0.20;0.20;;;13.30;99.90;;;;;;4837186;29;20046;-78
2023/06/02 06:44:34;;;;;;;0.20;0.20;;;13.40;99.90;;;;;;4822010;29;20053;-78
2023/06/02 06:47:00;;;;;;;0.20;0.20;;;13.40;99.90;;;;;;4825763;29;20096;-77
2023/06/02 06:49:25;;;;;;;0.10;0.10;;;13.60;99.90;;;;;;4831789;29;20488;-78
2023/06/02 06:51:51;;;;;;;0.10;0.10;;;13.60;99.90;;;;;;4818646;29;20046;-78
2023/06/02 06:54:17;;;;;;;0.20;0.20;;;13.50;99.90;;;;;;4835413;29;20045;-78
2023/06/02 06:56:45;;;;;;;0.20;0.20;;;13.50;99.90;;;;;;4834867;29;20068;-79
2023/06/02 06:59:11;;;;;;;0.10;0.10;;;13.60;99.90;;;;;;4836098;29;20046;-78
2023/06/02 07:01:38;;;;;;;0.20;0.20;;;13.70;99.90;;;;;;4834448;29;20624;-77
2023/06/02 07:04:03;;;;;;;0.10;0.10;;;14.10;99.90;;;;;;4822267;29;20103;-78
2023/06/02 07:06:29;;;;;;;0.15;0.15;;;13.90;99.90;;;;;;4818833;29;20042;-78
2023/06/02 07:08:55;;;;;;;0.10;0.10;;;14.00;99.90;;;;;;4829029;29;20502;-78
2023/06/02 07:11:21;;;;;;;0.20;0.20;;;14.10;99.90;;;;;;4833809;29;20054;-77
2023/06/02 07:13:47;;;;;;;0.20;0.20;;;14.20;99.90;;;;;;4813890;29;20658;-78
2023/06/02 07:16:12;;;;;;;0.10;0.10;;;14.20;99.90;;;;;;4829539;29;20099;-77
2023/06/02 07:18:38;;;;;;;0.15;0.15;;;14.30;99.90;;;;;;4835835;29;20045;-78
2023/06/02 07:21:04;;;;;;;0.20;0.20;;;14.30;99.90;;;;;;4825412;29;20372;-78
2023/06/02 07:23:29;;;;;;;0.20;0.20;;;14.30;99.90;;;;;;4835538;29;20046;-78
2023/06/02 07:25:55;;;;;;;0.10;0.10;;;14.40;99.90;;;;;;4815179;29;20061;-78
2023/06/02 07:28:21;;;;;;;0.20;0.20;;;14.50;99.90;;;;;;4834125;29;20600;-77
2023/06/02 07:30:52;;;;;;;0.10;0.10;;;14.50;99.90;;;;;;4836867;29;20455;-77
2023/06/02 07:33:18;;;;;;;0.20;0.20;;;14.50;99.90;;;;;;4835571;29;20061;-77
2023/06/02 07:35:44;;;;;;;0.13;0.13;;;14.50;99.90;;;;;;4813360;29;20521;-77
2023/06/02 07:38:10;;;;;;;0.10;0.10;;;14.50;99.90;;;;;;4813796;29;20052;-77
2023/06/02 07:40:35;;;;;;;0.20;0.20;;;14.50;99.90;;;;;;4814896;29;20451;-77
2023/06/02 07:43:01;;;;;;;0.10;0.10;;;14.50;99.90;;;;;;4841001;29;20054;-78
2023/06/02 07:45:27;;;;;;;0.10;0.10;;;14.60;99.90;;;;;;4828197;29;20190;-75
2023/06/02 07:47:53;;;;;;;0.15;0.15;;;14.60;99.90;;;;;;4835546;29;20129;-77
2023/06/02 07:50:19;;;;;;;0.10;0.10;;;14.70;99.90;;;;;;4839971;29;20524;-78
2023/06/02 07:52:45;;;;;;;0.20;0.20;;;14.80;99.90;;;;;;4842521;29;20440;-77
2023/06/02 07:55:12;;;;;;;0.20;0.20;;;14.80;99.90;;;;;;4822971;29;20133;-79
2023/06/02 07:57:37;;;;;;;0.10;0.10;;;14.90;99.90;;;;;;4807169;29;20430;-77
2023/06/02 08:00:17;;;;;;;0.10;0.10;;;14.90;99.90;;;;;;4833600;29;20574;-76
2023/06/02 08:02:46;;;;;;;0.20;0.20;;;15.00;99.90;;;;;;4829653;29;20049;-76
2023/06/02 08:05:12;;;;;;;0.20;0.20;;;15.00;99.90;;;;;;4816029;29;20373;-77
2023/06/02 08:07:39;;;;;;;0.10;0.10;;;15.10;99.90;;;;;;4836211;29;20499;-76
2023/06/02 08:10:06;;;;;;;0.20;0.20;;;15.10;99.90;;;;;;4841382;29;20056;-76
2023/06/02 08:12:31;;;;;;;0.20;0.20;;;15.10;99.90;;;;;;4806158;29;20517;-76
2023/06/02 08:14:57;;;;;;;0.10;0.10;;;15.10;99.90;;;;;;4825890;29;20470;-77
2023/06/02 08:17:29;;;;;;;0.10;0.10;;;15.20;99.90;;;;;;4821041;29;20049;-76
2023/06/02 08:19:58;;;;;;;0.20;0.20;;;15.20;99.90;;;;;;4819562;29;20133;-77
2023/06/02 08:22:26;;;;;;;0.20;0.20;;;15.20;99.90;;;;;;4840307;29;20093;-76
2023/06/02 08:24:55;;;;;;;0.10;0.10;;;15.30;99.90;;;;;;4813995;29;20067;-77
2023/06/02 08:27:21;;;;;;;0.10;0.10;;;15.30;99.90;;;;;;4834057;29;20198;-78
2023/06/02 08:29:51;;;;;;;0.10;0.10;;;15.40;99.90;;;;;;4819758;29;20208;-79
2023/06/02 08:32:17;;;;;;;0.20;0.20;;;15.40;99.90;;;;;;4833327;29;20120;-77
2023/06/02 08:34:47;;;;;;;0.10;0.10;;;15.40;99.90;;;;;;4815073;29;20054;-77
2023/06/02 08:37:17;;;;;;;0.10;0.10;;;15.50;99.90;;;;;;4820263;29;20573;-77
2023/06/02 08:39:44;;;;;;;0.15;0.15;;;15.50;99.90;;;;;;4837237;29;20038;-77
2023/06/02 08:42:11;;;;;;;0.10;0.10;;;15.60;99.90;;;;;;4825033;29;20050;-76
2023/06/02 08:44:37;;;;;;;0.10;0.10;;;15.60;99.90;;;;;;4828266;29;20484;-78
2023/06/02 08:47:03;;;;;;;0.10;0.10;;;15.60;99.90;;;;;;4837781;29;20058;-84
2023/06/02 08:49:33;;;;;;;0.17;0.17;;;15.60;99.90;;;;;;4816029;29;20173;-77
2023/06/02 08:52:05;;;;;;;0.10;0.10;;;15.70;99.90;;;;;;4838346;29;20072;-78
2023/06/02 08:54:32;;;;;;;0.10;0.10;;;15.70;99.90;;;;;;4840124;29;20042;-78
2023/06/02 08:56:59;;;;;;;0.20;0.20;;;15.70;99.90;;;;;;4840379;29;20061;-77
2023/06/02 08:59:24;;;;;;;0.20;0.20;;;15.80;99.90;;;;;;4839594;29;20099;-77
2023/06/02 09:01:50;;;;;;;0.10;0.10;;;15.80;99.90;;;;;;4823616;29;20084;-78
2023/06/02 09:04:19;;;;;;;0.20;0.20;;;15.80;99.90;;;;;;4839697;29;20054;-78
2023/06/02 09:06:48;;;;;;;0.10;0.10;;;15.80;99.90;;;;;;4822865;29;20052;-78
2023/06/02 09:09:14;;;;;;;0.20;0.20;;;15.90;99.90;;;;;;4832290;29;20054;-78
2023/06/02 09:11:57;;;;;;;0.20;0.20;;;15.90;99.90;;;;;;4839907;29;20124;-78
2023/06/02 09:14:23;;;;;;;0.20;0.20;;;15.90;99.90;;;;;;4839286;29;20045;-77
2023/06/02 09:16:48;;;;;;;0.20;0.20;;;15.90;99.90;;;;;;4839920;29;20045;-77
2023/06/02 09:19:14;;;;;;;0.20;0.20;;;16.00;99.90;;;;;;4838368;29;20084;-77
2023/06/02 09:21:41;;;;;;;0.10;0.10;;;16.00;99.90;;;;;;4822030;29;20506;-77
2023/06/02 09:24:07;;;;;;;0.10;0.10;;;16.10;99.90;;;;;;4820029;29;20122;-78
2023/06/02 09:26:33;;;;;;;0.20;0.20;;;16.10;99.90;;;;;;4820499;29;20045;-77
2023/06/02 09:29:08;;;;;;;0.10;0.10;;;16.10;99.90;;;;;;4824153;29;20052;-77
2023/06/02 09:31:45;;;;;;;0.20;0.20;;;16.20;99.90;;;;;;4822338;29;20050;-77
2023/06/02 09:34:12;;;;;;;0.20;0.20;;;16.20;99.90;;;;;;4838085;29;20502;-78
2023/06/02 09:36:38;;;;;;;0.20;0.20;;;16.20;99.90;;;;;;4854503;29;20102;-78
2023/06/02 09:39:05;;;;;;;0.20;0.20;;;16.20;99.90;;;;;;4822363;29;20479;-77
2023/06/02 09:41:31;;;;;;;0.20;0.20;;;16.30;99.90;;;;;;4841955;29;20410;-79
2023/06/02 09:43:57;;;;;;;0.15;0.15;;;16.20;99.90;;;;;;4807422;29;20446;-78
2023/06/02 09:46:23;;;;;;;0.10;0.10;;;16.20;99.90;;;;;;4831150;29;20049;-78
2023/06/02 09:48:57;;;;;;;0.20;0.20;;;16.20;99.90;;;;;;4818958;29;20858;-79
2023/06/02 09:51:24;;;;;;;0.20;0.20;;;16.30;99.90;;;;;;4837779;29;20063;-77
2023/06/02 09:53:50;;;;;;;0.20;0.20;;;16.40;99.90;;;;;;4826992;29;20061;-77
2023/06/02 09:56:18;;;;;;;0.10;0.10;;;16.30;99.90;;;;;;4840470;29;20042;-80
2023/06/02 09:58:45;;;;;;;0.13;0.13;;;16.40;99.90;;;;;;4839129;29;20053;-77
2023/06/02 10:01:12;;;;;;;0.20;0.20;;;16.40;99.30;;;;;;4822879;29;20046;-78
2023/06/02 10:03:42;;;;;;;0.20;0.20;;;16.40;99.30;;;;;;4837448;29;20128;-79
2023/06/02 10:06:26;;;;;;;0.10;0.10;;;16.50;98.90;;;;;;4820651;29;20440;-77
2023/06/02 10:09:01;;;;;;;0.20;0.20;;;16.50;98.20;;;;;;4822510;29;20038;-86
2023/06/02 10:12:11;;;;;;;0.20;0.20;;;16.50;97.70;;;;;;4825392;29;20046;-77
2023/06/02 10:15:06;;;;;;;0.15;0.15;;;16.50;97.40;;;;;;4827308;29;20541;-78
2023/06/02 10:17:50;;;;;;;0.20;0.20;;;16.50;97.00;;;;;;4819786;29;20046;-78
2023/06/02 10:20:26;;;;;;;0.13;0.13;;;16.60;97.00;;;;;;4820867;29;20057;-77
2023/06/02 10:23:12;;;;;;;0.20;0.20;;;16.60;96.80;;;;;;4822990;29;20066;-77
2023/06/02 10:26:07;;;;;;;0.10;0.10;;;16.70;96.80;;;;;;4814663;29;20133;-78
2023/06/02 10:28:33;;;;;;;0.17;0.17;;;16.70;96.60;;;;;;4819675;29;20050;-77
2023/06/02 10:31:11;;;;;;;0.20;0.20;;;16.70;96.90;;;;;;4819257;29;20121;-77
2023/06/02 10:33:48;;;;;;;0.17;0.17;;;16.80;97.20;;;;;;4821381;29;20050;-77
2023/06/02 10:36:17;;;;;;;0.20;0.20;;;16.80;97.30;;;;;;4838741;29;20197;-77
2023/06/02 10:38:46;;;;;;;0.10;0.10;;;16.90;97.50;;;;;;4821356;29;20057;-78
2023/06/02 10:41:14;;;;;;;0.20;0.20;;;16.90;97.70;;;;;;4821955;29;20052;-79
2023/06/02 10:44:19;;;;;;;0.20;0.20;;;17.00;97.90;;;;;;4824681;29;20038;-77
2023/06/02 10:46:45;;;;;;;0.10;0.10;;;17.00;97.90;;;;;;4840063;29;20510;-78
2023/06/02 10:49:31;;;;;;;0.20;0.20;;;;;;;;;;4821903;29;20098;-79
2023/06/02 10:52:06;;;;;;;0.20;0.20;;;17.10;98.20;;;;;;4840958;29;20060;-78
2023/06/02 10:54:32;;;;;;;0.10;0.10;;;17.20;98.50;;;;;;4825533;29;20129;-79
2023/06/02 10:56:59;;;;;;;0.20;0.20;;;17.30;98.60;;;;;;4841148;29;20574;-79
2023/06/02 10:59:31;;;;;;;0.20;0.20;;;17.30;98.60;;;;;;4843249;29;20494;-78
2023/06/02 11:01:57;;;;;;;0.20;0.20;;;17.00;98.50;;;;;;4823639;29;20523;-78
2023/06/02 11:04:44;;;;;;;0.20;0.20;;;17.40;98.70;;;;;;4840800;29;20042;-78
2023/06/02 11:07:18;;;;;;;0.13;0.13;;;17.40;98.90;;;;;;4837943;29;20049;-80
2023/06/02 11:09:47;;;;;;;0.20;0.20;;;17.50;99.10;;;;;;4828751;29;20133;-78
2023/06/02 11:12:13;;;;;;;0.10;0.10;;;17.50;99.40;;;;;;4825445;29;20191;-78
2023/06/02 11:15:01;;;;;;;0.10;0.10;;;17.60;99.50;;;;;;4843719;29;20132;-78
2023/06/02 11:17:36;;;;;;;0.10;0.10;;;17.70;99.40;;;;;;4821986;29;20045;-78
2023/06/02 11:20:06;;;;;;;0.20;0.20;;;17.70;99.80;;;;;;4829933;29;20474;-77
2023/06/02 11:22:34;;;;;;;0.10;0.10;;;17.80;99.90;;;;;;4840603;29;20125;-78
2023/06/02 11:25:01;;;;;;;0.20;0.20;;;17.90;99.90;;;;;;4826032;29;20484;-78
2023/06/02 11:27:44;;;;;;;0.30;0.30;;;18.00;99.90;;;;;;4839028;29;20061;-77
2023/06/02 11:30:13;;;;;;;0.20;0.20;;;18.10;99.90;;;;;;4831007;29;20499;-76
2023/06/02 11:32:40;;;;;;;0.20;0.20;;;18.20;99.90;;;;;;4824582;29;20102;-76
2023/06/02 11:35:07;;;;;;;0.20;0.20;;;18.40;99.90;;;;;;4840426;29;20478;-76
2023/06/02 11:37:38;;;;;;;0.20;0.20;;;18.40;99.90;;;;;;4839079;29;20421;-77
2023/06/02 11:40:08;;;;;;;0.20;0.20;;;18.50;99.90;;;;;;4827229;29;20049;-77
2023/06/02 11:42:43;;;;;;;0.20;0.20;;;18.60;99.90;;;;;;4837983;29;20042;-78
2023/06/02 11:45:23;;;;;;;0.20;0.20;;;18.60;99.90;;;;;;4816106;29;20132;-76
2023/06/02 11:48:05;;;;;;;0.10;0.10;;;18.50;99.90;;;;;;4838677;29;20121;-77
2023/06/02 11:50:31;;;;;;;0.10;0.10;;;18.60;99.90;;;;;;4840041;29;20042;-78
2023/06/02 11:52:57;;;;;;;0.20;0.20;;;18.70;99.90;;;;;;4829939;29;20053;-77
2023/06/02 11:55:31;;;;;;;0.20;0.20;;;18.60;99.90;;;;;;4822955;29;20046;-77
2023/06/02 11:58:16;;;;;;;0.20;0.20;;;18.80;99.90;;;;;;4838102;29;20065;-77
2023/06/02 12:00:42;;;;;;;0.20;0.20;;;18.90;99.90;;;;;;4840943;29;20502;-79
2023/06/02 12:03:08;;;;;;;0.10;0.10;;;18.90;99.90;;;;;;4831377;29;20046;-77
2023/06/02 12:05:34;;;;;;;0.10;0.10;;;19.00;99.90;;;;;;4819926;29;20081;-78
2023/06/02 12:08:20;;;;;;;0.20;0.20;;;19.00;99.90;;;;;;4840985;29;20054;-78
2023/06/02 12:10:47;;;;;;;0.20;0.20;;;19.10;99.90;;;;;;4823747;29;20418;-78
2023/06/02 12:13:26;;;;;;;0.20;0.20;;;19.10;99.90;;;;;;4823244;29;20125;-78
2023/06/02 12:15:53;;;;;;;0.20;0.20;;;19.10;99.90;;;;;;4830070;29;20102;-78
2023/06/02 12:18:32;;;;;;;0.20;0.20;;;19.20;99.90;;;;;;4811350;29;20133;-79
2023/06/02 12:20:59;;;;;;;0.20;0.20;;;19.20;99.90;;;;;;4819271;29;20054;-79
2023/06/02 12:23:42;;;;;;;0.10;0.10;;;19.30;99.90;;;;;;4842155;29;20062;-78
2023/06/02 12:26:08;;;;;;;0.10;0.10;;;19.20;99.90;;;;;;4840968;29;20046;-78
2023/06/02 12:28:34;;;;;;;0.20;0.20;;;19.20;99.90;;;;;;4833290;29;20054;-79
2023/06/02 12:30:59;;;;;;;0.20;0.20;;;19.20;99.90;;;;;;4833449;29;20049;-79
2023/06/02 12:33:25;;;;;;;0.17;0.17;;;19.30;99.90;;;;;;4852393;29;20402;-77
2023/06/02 12:35:51;;;;;;;0.20;0.20;;;19.40;99.90;;;;;;4825275;29;20134;-79
2023/06/02 12:38:16;;;;;;;0.20;0.20;;;19.40;99.90;;;;;;4841567;29;20052;-78
2023/06/02 12:40:42;;;;;;;0.20;0.20;;;19.40;99.90;;;;;;4840573;29;20507;-74
2023/06/02 12:43:08;;;;;;;0.20;0.20;;;19.50;99.90;;;;;;4841420;29;20046;-76
2023/06/02 12:45:33;;;;;;;0.20;0.20;;;19.50;99.90;;;;;;4840644;29;20502;-75
2023/06/02 12:48:01;;;;;;;0.20;0.20;;;19.60;99.90;;;;;;4839219;29;20046;-77
2023/06/02 12:50:27;;;;;;;0.20;0.20;;;19.70;99.90;;;;;;4841252;29;20180;-76
2023/06/02 12:52:53;;;;;;;0.20;0.20;;;19.70;99.90;;;;;;4840818;29;20038;-76